sensor_id;sensor_type;location;lat;lon;timestamp;temperature;humidity
65766;SHT31;52915;53.718;19.946;2022-08-21T05:32:30;22.75;82.36
65766;SHT31;52915;53.718;19.946;2022-08-21T05:37:35;22.54;82.82
65766;SHT31;52915;53.718;19.946;2022-08-21T05:42:39;22.39;83.22
65766;SHT31;52915;53.718;19.946;2022-08-21T05:47:43;22.20;83.73
65766;SHT31;52915;53.718;19.946;2022-08-21T05:52:48;22.10;84.18
65766;SHT31;52915;53.718;19.946;2022-08-21T05:58:00;22.04;84.35
65766;SHT31;52915;53.718;19.946;2022-08-21T06:03:04;22.09;84.65
65766;SHT31;52915;53.718;19.946;2022-08-21T06:08:18;22.05;84.52
65766;SHT31;52915;53.718;19.946;2022-08-21T06:13:25;22.02;84.31
65766;SHT31;52915;53.718;19.946;2022-08-21T06:18:31;22.07;84.47
65766;SHT31;52915;53.718;19.946;2022-08-21T06:23:36;22.21;84.55
65766;SHT31;52915;53.718;19.946;2022-08-21T06:28:41;22.32;84.54
65766;SHT31;52915;53.718;19.946;2022-08-21T06:33:50;22.37;84.39
65766;SHT31;52915;53.718;19.946;2022-08-21T06:38:55;22.41;84.07
65766;SHT31;52915;53.718;19.946;2022-08-21T06:44:01;22.52;83.79
65766;SHT31;52915;53.718;19.946;2022-08-21T06:49:05;22.62;83.22
65766;SHT31;52915;53.718;19.946;2022-08-21T06:54:20;22.72;82.98
65766;SHT31;52915;53.718;19.946;2022-08-21T06:59:25;22.87;82.71
65766;SHT31;52915;53.718;19.946;2022-08-21T07:04:31;23.30;82.36
65766;SHT31;52915;53.718;19.946;2022-08-21T07:09:38;23.76;81.28
65766;SHT31;52915;53.718;19.946;2022-08-21T07:14:42;24.00;79.95
65766;SHT31;52915;53.718;19.946;2022-08-21T07:19:47;24.31;79.69
65766;SHT31;52915;53.718;19.946;2022-08-21T07:24:53;24.73;78.62
65766;SHT31;52915;53.718;19.946;2022-08-21T07:29:58;24.88;77.36
65766;SHT31;52915;53.718;19.946;2022-08-21T07:35:04;24.89;76.18
65766;SHT31;52915;53.718;19.946;2022-08-21T07:40:09;24.94;76.21
65766;SHT31;52915;53.718;19.946;2022-08-21T07:45:13;25.23;75.63
65766;SHT31;52915;53.718;19.946;2022-08-21T07:50:19;25.19;74.19
65766;SHT31;52915;53.718;19.946;2022-08-21T07:55:24;25.10;73.67
65766;SHT31;52915;53.718;19.946;2022-08-21T08:00:30;25.02;73.63
65766;SHT31;52915;53.718;19.946;2022-08-21T08:05:37;24.94;73.33
65766;SHT31;52915;53.718;19.946;2022-08-21T08:10:44;25.14;73.86
65766;SHT31;52915;53.718;19.946;2022-08-21T08:15:50;25.41;72.95
65766;SHT31;52915;53.718;19.946;2022-08-21T08:20:56;25.64;71.93
65766;SHT31;52915;53.718;19.946;2022-08-21T08:26:00;25.82;70.93
65766;SHT31;52915;53.718;19.946;2022-08-21T08:31:08;25.92;71.10
65766;SHT31;52915;53.718;19.946;2022-08-21T08:36:16;26.54;70.83
65766;SHT31;52915;53.718;19.946;2022-08-21T08:41:22;27.12;69.54
65766;SHT31;52915;53.718;19.946;2022-08-21T08:46:38;27.28;68.40
65766;SHT31;52915;53.718;19.946;2022-08-21T08:51:57;27.56;68.25
65766;SHT31;52915;53.718;19.946;2022-08-21T08:57:17;27.92;66.96
65766;SHT31;52915;53.718;19.946;2022-08-21T09:02:24;27.82;66.61
65766;SHT31;52915;53.718;19.946;2022-08-21T09:24:43;28.35;66.29
65766;SHT31;52915;53.718;19.946;2022-08-21T09:30:17;28.08;66.53
65766;SHT31;52915;53.718;19.946;2022-08-21T09:35:27;27.84;66.66
65766;SHT31;52915;53.718;19.946;2022-08-21T09:40:42;27.94;66.32
65766;SHT31;52915;53.718;19.946;2022-08-21T09:45:49;27.87;65.32
65766;SHT31;52915;53.718;19.946;2022-08-21T09:51:28;27.77;65.49
65766;SHT31;52915;53.718;19.946;2022-08-21T09:56:40;28.04;64.84
65766;SHT31;52915;53.718;19.946;2022-08-21T10:02:29;28.65;64.31
65766;SHT31;52915;53.718;19.946;2022-08-21T10:07:37;29.23;62.60
65766;SHT31;52915;53.718;19.946;2022-08-21T10:12:46;29.54;61.90
65766;SHT31;52915;53.718;19.946;2022-08-21T10:18:11;29.72;61.13
65766;SHT31;52915;53.718;19.946;2022-08-21T10:29:45;30.40;60.15
65766;SHT31;52915;53.718;19.946;2022-08-21T10:52:25;31.23;57.49
65766;SHT31;52915;53.718;19.946;2022-08-21T10:57:47;31.38;56.61
65766;SHT31;52915;53.718;19.946;2022-08-21T11:03:12;31.28;55.83
65766;SHT31;52915;53.718;19.946;2022-08-21T11:08:26;30.83;55.99
65766;SHT31;52915;53.718;19.946;2022-08-21T11:30:14;31.50;54.19
65766;SHT31;52915;53.718;19.946;2022-08-21T11:35:22;31.47;55.22
65766;SHT31;52915;53.718;19.946;2022-08-21T11:52:20;31.45;55.16
65766;SHT31;52915;53.718;19.946;2022-08-21T11:57:30;31.32;55.46
65766;SHT31;52915;53.718;19.946;2022-08-21T12:02:45;31.13;55.51
65766;SHT31;52915;53.718;19.946;2022-08-21T12:08:09;30.68;55.93
65766;SHT31;52915;53.718;19.946;2022-08-21T12:13:52;30.86;55.69
65766;SHT31;52915;53.718;19.946;2022-08-21T12:29:36;31.36;54.76
65766;SHT31;52915;53.718;19.946;2022-08-21T12:34:44;31.11;55.09
65766;SHT31;52915;53.718;19.946;2022-08-21T12:39:54;30.85;55.01
65766;SHT31;52915;53.718;19.946;2022-08-21T12:45:04;30.24;55.81
65766;SHT31;52915;53.718;19.946;2022-08-21T12:55:51;29.65;58.08
65766;SHT31;52915;53.718;19.946;2022-08-21T13:00:59;29.46;58.81
65766;SHT31;52915;53.718;19.946;2022-08-21T13:06:12;29.29;59.33
65766;SHT31;52915;53.718;19.946;2022-08-21T13:11:20;29.22;59.98
65766;SHT31;52915;53.718;19.946;2022-08-21T13:16:36;29.13;59.71
65766;SHT31;52915;53.718;19.946;2022-08-21T13:21:42;28.77;61.22
65766;SHT31;52915;53.718;19.946;2022-08-21T13:26:47;28.30;62.54
65766;SHT31;52915;53.718;19.946;2022-08-21T13:31:55;27.90;63.83
65766;SHT31;52915;53.718;19.946;2022-08-21T13:37:04;27.61;64.81
65766;SHT31;52915;53.718;19.946;2022-08-21T13:42:11;27.37;65.64
65766;SHT31;52915;53.718;19.946;2022-08-21T13:47:18;27.20;66.29
65766;SHT31;52915;53.718;19.946;2022-08-21T13:52:24;26.96;67.23
65766;SHT31;52915;53.718;19.946;2022-08-21T13:57:31;26.70;68.44
65766;SHT31;52915;53.718;19.946;2022-08-21T14:02:39;26.45;69.24
65766;SHT31;52915;53.718;19.946;2022-08-21T14:07:48;26.21;70.04
65766;SHT31;52915;53.718;19.946;2022-08-21T14:13:07;26.04;70.32
65766;SHT31;52915;53.718;19.946;2022-08-21T14:18:30;25.84;71.07
65766;SHT31;52915;53.718;19.946;2022-08-21T14:23:35;25.73;71.63
65766;SHT31;52915;53.718;19.946;2022-08-21T14:28:40;25.67;71.90
65766;SHT31;52915;53.718;19.946;2022-08-21T14:33:45;25.66;72.06
65766;SHT31;52915;53.718;19.946;2022-08-21T14:38:50;25.60;72.68
65766;SHT31;52915;53.718;19.946;2022-08-21T14:43:55;25.48;73.00
65766;SHT31;52915;53.718;19.946;2022-08-21T14:49:11;25.41;73.79
65766;SHT31;52915;53.718;19.946;2022-08-21T14:54:16;25.34;74.14
65766;SHT31;52915;53.718;19.946;2022-08-21T14:59:20;25.17;75.17
65766;SHT31;52915;53.718;19.946;2022-08-21T15:04:26;24.92;75.99
65766;SHT31;52915;53.718;19.946;2022-08-21T15:09:31;24.74;77.31
65766;SHT31;52915;53.718;19.946;2022-08-21T15:14:38;24.57;77.82
65766;SHT31;52915;53.718;19.946;2022-08-21T15:19:44;24.51;78.25
65766;SHT31;52915;53.718;19.946;2022-08-21T15:24:49;24.49;78.68
65766;SHT31;52915;53.718;19.946;2022-08-21T15:29:54;24.47;78.65
65766;SHT31;52915;53.718;19.946;2022-08-21T15:34:59;24.29;78.68
65766;SHT31;52915;53.718;19.946;2022-08-21T15:40:07;24.08;79.08
65766;SHT31;52915;53.718;19.946;2022-08-21T15:45:13;23.91;79.66
65766;SHT31;52915;53.718;19.946;2022-08-21T15:50:19;23.75;79.82
65766;SHT31;52915;53.718;19.946;2022-08-21T15:55:24;23.60;80.28
65766;SHT31;52915;53.718;19.946;2022-08-21T16:00:29;23.45;80.71
65766;SHT31;52915;53.718;19.946;2022-08-21T16:05:38;23.34;80.99
65766;SHT31;52915;53.718;19.946;2022-08-21T16:10:43;23.17;81.38
65766;SHT31;52915;53.718;19.946;2022-08-21T16:15:48;23.08;81.57
65766;SHT31;52915;53.718;19.946;2022-08-21T16:20:53;23.02;81.80
65766;SHT31;52915;53.718;19.946;2022-08-21T16:25:58;22.96;82.04
65766;SHT31;52915;53.718;19.946;2022-08-21T16:31:03;22.90;82.44
65766;SHT31;52915;53.718;19.946;2022-08-21T16:36:12;22.90;82.31
65766;SHT31;52915;53.718;19.946;2022-08-21T16:41:17;22.88;82.35
65766;SHT31;52915;53.718;19.946;2022-08-21T16:46:31;22.85;82.42
65766;SHT31;52915;53.718;19.946;2022-08-21T16:51:40;22.82;82.47
65766;SHT31;52915;53.718;19.946;2022-08-21T16:56:46;22.74;82.64
65766;SHT31;52915;53.718;19.946;2022-08-21T17:01:51;22.67;82.52
65766;SHT31;52915;53.718;19.946;2022-08-21T17:06:57;22.60;82.58
65766;SHT31;52915;53.718;19.946;2022-08-21T17:12:01;22.56;82.57
65766;SHT31;52915;53.718;19.946;2022-08-21T17:17:08;22.51;82.75
65766;SHT31;52915;53.718;19.946;2022-08-21T17:22:14;22.45;82.83
65766;SHT31;52915;53.718;19.946;2022-08-21T17:27:18;22.38;82.85
65766;SHT31;52915;53.718;19.946;2022-08-21T17:32:28;22.24;82.90
65766;SHT31;52915;53.718;19.946;2022-08-21T17:37:34;22.17;82.82
65766;SHT31;52915;53.718;19.946;2022-08-21T17:42:45;22.08;83.00
65766;SHT31;52915;53.718;19.946;2022-08-21T17:47:56;21.95;83.24
65766;SHT31;52915;53.718;19.946;2022-08-21T17:53:01;21.85;83.49
65766;SHT31;52915;53.718;19.946;2022-08-21T17:58:07;21.79;83.56
65766;SHT31;52915;53.718;19.946;2022-08-21T18:03:18;21.75;83.49
65766;SHT31;52915;53.718;19.946;2022-08-21T18:08:25;21.70;83.61
65766;SHT31;52915;53.718;19.946;2022-08-21T18:13:32;21.64;83.79
65766;SHT31;52915;53.718;19.946;2022-08-21T18:18:40;21.60;83.79
65766;SHT31;52915;53.718;19.946;2022-08-21T18:23:46;21.55;84.10
65766;SHT31;52915;53.718;19.946;2022-08-21T18:28:51;21.50;84.17
65766;SHT31;52915;53.718;19.946;2022-08-21T18:33:57;21.44;84.28
65766;SHT31;52915;53.718;19.946;2022-08-21T18:39:05;21.39;84.32
65766;SHT31;52915;53.718;19.946;2022-08-21T18:44:29;21.34;84.47
65766;SHT31;52915;53.718;19.946;2022-08-21T18:49:34;21.34;84.44
65766;SHT31;52915;53.718;19.946;2022-08-21T18:54:41;21.28;84.61
65766;SHT31;52915;53.718;19.946;2022-08-21T18:59:47;21.27;84.46
65766;SHT31;52915;53.718;19.946;2022-08-21T19:04:51;21.23;84.58
65766;SHT31;52915;53.718;19.946;2022-08-21T19:09:56;21.20;84.66
65766;SHT31;52915;53.718;19.946;2022-08-21T19:15:20;21.10;84.51
65766;SHT31;52915;53.718;19.946;2022-08-21T19:20:30;20.97;84.37
65766;SHT31;52915;53.718;19.946;2022-08-21T19:25:52;20.87;84.40
65766;SHT31;52915;53.718;19.946;2022-08-21T19:31:22;20.78;84.51
65766;SHT31;52915;53.718;19.946;2022-08-21T19:36:36;20.71;84.51
65766;SHT31;52915;53.718;19.946;2022-08-21T19:41:46;20.65;84.34
65766;SHT31;52915;53.718;19.946;2022-08-21T19:47:08;20.54;84.50
65766;SHT31;52915;53.718;19.946;2022-08-21T19:52:22;20.50;84.61
65766;SHT31;52915;53.718;19.946;2022-08-21T19:57:27;20.47;84.64
65766;SHT31;52915;53.718;19.946;2022-08-21T20:02:34;20.40;84.76
65766;SHT31;52915;53.718;19.946;2022-08-21T20:07:54;20.32;84.83
65766;SHT31;52915;53.718;19.946;2022-08-21T20:12:58;20.25;84.97
65766;SHT31;52915;53.718;19.946;2022-08-21T20:18:05;20.19;85.14
65766;SHT31;52915;53.718;19.946;2022-08-21T20:23:21;20.09;85.44
65766;SHT31;52915;53.718;19.946;2022-08-21T20:28:46;20.07;85.55
65766;SHT31;52915;53.718;19.946;2022-08-21T20:33:59;20.07;85.61
65766;SHT31;52915;53.718;19.946;2022-08-21T20:39:13;20.07;85.67
65766;SHT31;52915;53.718;19.946;2022-08-21T20:44:30;20.03;85.78
65766;SHT31;52915;53.718;19.946;2022-08-21T20:49:52;19.99;85.99
65766;SHT31;52915;53.718;19.946;2022-08-21T20:55:09;19.95;86.10
65766;SHT31;52915;53.718;19.946;2022-08-21T21:00:34;19.94;86.13
65766;SHT31;52915;53.718;19.946;2022-08-21T21:16:56;19.85;86.19
65766;SHT31;52915;53.718;19.946;2022-08-21T21:22:13;19.81;86.25
65766;SHT31;52915;53.718;19.946;2022-08-21T21:32:50;19.68;86.33
65766;SHT31;52915;53.718;19.946;2022-08-21T21:37:58;19.66;86.32
65766;SHT31;52915;53.718;19.946;2022-08-21T21:43:27;19.64;86.38
65766;SHT31;52915;53.718;19.946;2022-08-21T22:00:05;19.50;85.75
65766;SHT31;52915;53.718;19.946;2022-08-21T22:17:04;19.08;85.32
65766;SHT31;52915;53.718;19.946;2022-08-21T22:22:29;18.93;85.17
65766;SHT31;52915;53.718;19.946;2022-08-21T22:27:38;18.77;85.18
65766;SHT31;52915;53.718;19.946;2022-08-21T22:32:47;18.64;85.42
65766;SHT31;52915;53.718;19.946;2022-08-21T22:37:54;18.56;85.50
65766;SHT31;52915;53.718;19.946;2022-08-21T22:43:06;18.50;85.57
65766;SHT31;52915;53.718;19.946;2022-08-21T22:48:19;18.43;85.71
65766;SHT31;52915;53.718;19.946;2022-08-21T22:53:26;18.41;85.78
65766;SHT31;52915;53.718;19.946;2022-08-21T22:58:51;18.36;85.82
65766;SHT31;52915;53.718;19.946;2022-08-21T23:04:16;18.33;85.92
65766;SHT31;52915;53.718;19.946;2022-08-21T23:09:44;18.30;85.97
65766;SHT31;52915;53.718;19.946;2022-08-21T23:14:55;18.25;86.07
65766;SHT31;52915;53.718;19.946;2022-08-21T23:31:38;18.15;86.34
65766;SHT31;52915;53.718;19.946;2022-08-21T23:37:23;18.11;86.18
65766;SHT31;52915;53.718;19.946;2022-08-21T23:43:00;18.06;86.00
65766;SHT31;52915;53.718;19.946;2022-08-21T23:53:28;17.98;85.89
